sensor_id;sensor_type;location;lat;lon;timestamp;P1;durP1;ratioP1;P2;durP2;ratioP2
24635;SDS011;12772;49.794;10.024;2023-12-22T00:01:12;3.25;;;1.63;;
24635;SDS011;12772;49.794;10.024;2023-12-22T00:05:17;5.68;;;2.00;;
24635;SDS011;12772;49.794;10.024;2023-12-22T00:09:22;4.30;;;1.65;;
24635;SDS011;12772;49.794;10.024;2023-12-22T00:13:28;2.92;;;1.60;;
24635;SDS011;12772;49.794;10.024;2023-12-22T00:17:38;10.02;;;1.95;;
24635;SDS011;12772;49.794;10.024;2023-12-22T00:21:45;3.67;;;2.00;;
24635;SDS011;12772;49.794;10.024;2023-12-22T00:25:48;3.65;;;1.85;;
24635;SDS011;12772;49.794;10.024;2023-12-22T00:29:50;5.07;;;2.05;;
24635;SDS011;12772;49.794;10.024;2023-12-22T00:33:52;8.85;;;2.28;;
24635;SDS011;12772;49.794;10.024;2023-12-22T00:37:54;6.22;;;2.22;;
24635;SDS011;12772;49.794;10.024;2023-12-22T00:41:57;2.92;;;1.70;;
24635;SDS011;12772;49.794;10.024;2023-12-22T00:45:58;6.07;;;2.03;;
24635;SDS011;12772;49.794;10.024;2023-12-22T00:50:01;4.38;;;1.40;;
24635;SDS011;12772;49.794;10.024;2023-12-22T00:54:04;4.15;;;1.67;;
24635;SDS011;12772;49.794;10.024;2023-12-22T00:58:06;3.60;;;1.65;;
24635;SDS011;12772;49.794;10.024;2023-12-22T01:02:08;4.78;;;1.80;;
24635;SDS011;12772;49.794;10.024;2023-12-22T01:06:10;3.53;;;1.42;;
24635;SDS011;12772;49.794;10.024;2023-12-22T01:10:12;2.72;;;1.20;;
24635;SDS011;12772;49.794;10.024;2023-12-22T01:14:14;2.08;;;1.33;;
24635;SDS011;12772;49.794;10.024;2023-12-22T01:18:16;2.38;;;1.00;;
24635;SDS011;12772;49.794;10.024;2023-12-22T01:22:18;4.00;;;1.63;;
24635;SDS011;12772;49.794;10.024;2023-12-22T01:26:20;3.80;;;1.45;;
24635;SDS011;12772;49.794;10.024;2023-12-22T01:30:22;3.22;;;1.50;;
24635;SDS011;12772;49.794;10.024;2023-12-22T01:34:24;3.10;;;1.73;;
24635;SDS011;12772;49.794;10.024;2023-12-22T01:38:27;2.90;;;1.10;;
24635;SDS011;12772;49.794;10.024;2023-12-22T01:42:29;1.00;;;0.90;;
24635;SDS011;12772;49.794;10.024;2023-12-22T01:46:31;3.05;;;0.82;;
24635;SDS011;12772;49.794;10.024;2023-12-22T01:50:34;1.08;;;0.82;;
24635;SDS011;12772;49.794;10.024;2023-12-22T01:54:37;1.42;;;1.00;;
24635;SDS011;12772;49.794;10.024;2023-12-22T01:58:39;0.90;;;0.80;;
24635;SDS011;12772;49.794;10.024;2023-12-22T02:02:41;1.75;;;0.80;;
24635;SDS011;12772;49.794;10.024;2023-12-22T02:06:44;3.03;;;0.93;;
24635;SDS011;12772;49.794;10.024;2023-12-22T02:10:46;1.15;;;0.82;;
24635;SDS011;12772;49.794;10.024;2023-12-22T02:14:48;0.98;;;0.88;;
24635;SDS011;12772;49.794;10.024;2023-12-22T02:18:50;3.05;;;0.73;;
24635;SDS011;12772;49.794;10.024;2023-12-22T02:22:56;0.63;;;0.50;;
24635;SDS011;12772;49.794;10.024;2023-12-22T02:31:39;0.50;;;0.50;;
24635;SDS011;12772;49.794;10.024;2023-12-22T02:35:45;2.03;;;0.57;;
24635;SDS011;12772;49.794;10.024;2023-12-22T02:39:51;0.68;;;0.50;;
24635;SDS011;12772;49.794;10.024;2023-12-22T02:43:54;0.52;;;0.52;;
24635;SDS011;12772;49.794;10.024;2023-12-22T02:47:56;1.02;;;0.80;;
24635;SDS011;12772;49.794;10.024;2023-12-22T02:51:58;0.70;;;0.70;;
24635;SDS011;12772;49.794;10.024;2023-12-22T02:56:00;0.60;;;0.60;;
24635;SDS011;12772;49.794;10.024;2023-12-22T03:00:03;1.23;;;0.75;;
24635;SDS011;12772;49.794;10.024;2023-12-22T03:04:05;0.57;;;0.57;;
24635;SDS011;12772;49.794;10.024;2023-12-22T03:08:07;0.73;;;0.70;;
24635;SDS011;12772;49.794;10.024;2023-12-22T03:12:09;1.17;;;1.17;;
24635;SDS011;12772;49.794;10.024;2023-12-22T03:16:12;0.60;;;0.60;;
24635;SDS011;12772;49.794;10.024;2023-12-22T03:20:14;1.90;;;1.02;;
24635;SDS011;12772;49.794;10.024;2023-12-22T03:24:16;1.92;;;1.17;;
24635;SDS011;12772;49.794;10.024;2023-12-22T03:28:19;1.02;;;0.90;;
24635;SDS011;12772;49.794;10.024;2023-12-22T03:32:21;3.30;;;1.27;;
24635;SDS011;12772;49.794;10.024;2023-12-22T03:36:23;1.30;;;0.80;;
24635;SDS011;12772;49.794;10.024;2023-12-22T03:40:25;0.80;;;0.80;;
24635;SDS011;12772;49.794;10.024;2023-12-22T03:44:27;1.00;;;0.70;;
24635;SDS011;12772;49.794;10.024;2023-12-22T03:48:29;2.30;;;0.93;;
24635;SDS011;12772;49.794;10.024;2023-12-22T03:52:31;1.98;;;1.08;;
24635;SDS011;12772;49.794;10.024;2023-12-22T03:56:33;1.05;;;0.80;;
24635;SDS011;12772;49.794;10.024;2023-12-22T04:00:35;0.80;;;0.80;;
24635;SDS011;12772;49.794;10.024;2023-12-22T04:04:37;0.60;;;0.60;;
24635;SDS011;12772;49.794;10.024;2023-12-22T04:08:40;1.38;;;0.63;;
24635;SDS011;12772;49.794;10.024;2023-12-22T04:12:41;0.73;;;0.73;;
24635;SDS011;12772;49.794;10.024;2023-12-22T04:16:43;1.85;;;1.00;;
24635;SDS011;12772;49.794;10.024;2023-12-22T04:20:46;0.68;;;0.60;;
24635;SDS011;12772;49.794;10.024;2023-12-22T04:24:50;1.42;;;0.90;;
24635;SDS011;12772;49.794;10.024;2023-12-22T04:28:52;2.55;;;0.95;;
24635;SDS011;12772;49.794;10.024;2023-12-22T04:32:54;1.67;;;0.68;;
24635;SDS011;12772;49.794;10.024;2023-12-22T04:36:56;2.13;;;0.85;;
24635;SDS011;12772;49.794;10.024;2023-12-22T04:40:58;3.00;;;0.95;;
24635;SDS011;12772;49.794;10.024;2023-12-22T04:45:00;0.90;;;0.70;;
24635;SDS011;12772;49.794;10.024;2023-12-22T04:49:02;0.95;;;0.80;;
24635;SDS011;12772;49.794;10.024;2023-12-22T04:53:04;0.77;;;0.55;;
24635;SDS011;12772;49.794;10.024;2023-12-22T04:57:06;0.70;;;0.70;;
24635;SDS011;12772;49.794;10.024;2023-12-22T05:01:08;1.05;;;0.65;;
24635;SDS011;12772;49.794;10.024;2023-12-22T05:05:10;1.95;;;0.98;;
24635;SDS011;12772;49.794;10.024;2023-12-22T05:09:13;0.50;;;0.50;;
24635;SDS011;12772;49.794;10.024;2023-12-22T05:13:15;0.47;;;0.47;;
24635;SDS011;12772;49.794;10.024;2023-12-22T05:17:17;2.00;;;1.40;;
24635;SDS011;12772;49.794;10.024;2023-12-22T05:21:19;1.88;;;0.98;;
24635;SDS011;12772;49.794;10.024;2023-12-22T05:25:21;4.57;;;2.25;;
24635;SDS011;12772;49.794;10.024;2023-12-22T05:29:23;1.92;;;1.80;;
24635;SDS011;12772;49.794;10.024;2023-12-22T05:33:25;1.75;;;1.63;;
24635;SDS011;12772;49.794;10.024;2023-12-22T05:37:27;1.30;;;1.20;;
24635;SDS011;12772;49.794;10.024;2023-12-22T05:41:32;1.33;;;1.25;;
24635;SDS011;12772;49.794;10.024;2023-12-22T05:45:36;0.90;;;0.90;;
24635;SDS011;12772;49.794;10.024;2023-12-22T05:49:40;0.90;;;0.90;;
24635;SDS011;12772;49.794;10.024;2023-12-22T05:53:43;1.00;;;1.00;;
24635;SDS011;12772;49.794;10.024;2023-12-22T05:57:47;0.85;;;0.85;;
24635;SDS011;12772;49.794;10.024;2023-12-22T06:01:53;1.08;;;0.98;;
24635;SDS011;12772;49.794;10.024;2023-12-22T06:05:55;2.85;;;1.00;;
24635;SDS011;12772;49.794;10.024;2023-12-22T06:09:57;0.95;;;0.80;;
24635;SDS011;12772;49.794;10.024;2023-12-22T06:13:59;2.55;;;1.50;;
24635;SDS011;12772;49.794;10.024;2023-12-22T06:18:01;1.52;;;1.40;;
24635;SDS011;12772;49.794;10.024;2023-12-22T06:22:03;2.45;;;1.40;;
24635;SDS011;12772;49.794;10.024;2023-12-22T06:26:09;3.20;;;1.67;;
24635;SDS011;12772;49.794;10.024;2023-12-22T06:30:12;1.73;;;1.60;;
24635;SDS011;12772;49.794;10.024;2023-12-22T06:34:14;3.30;;;1.52;;
24635;SDS011;12772;49.794;10.024;2023-12-22T06:38:16;1.83;;;1.58;;
24635;SDS011;12772;49.794;10.024;2023-12-22T06:42:18;3.10;;;1.70;;
24635;SDS011;12772;49.794;10.024;2023-12-22T06:46:22;4.60;;;2.08;;
24635;SDS011;12772;49.794;10.024;2023-12-22T06:50:26;3.67;;;1.73;;
24635;SDS011;12772;49.794;10.024;2023-12-22T06:54:28;3.30;;;1.33;;
24635;SDS011;12772;49.794;10.024;2023-12-22T06:58:31;2.65;;;1.52;;
24635;SDS011;12772;49.794;10.024;2023-12-22T07:02:33;1.38;;;1.27;;
24635;SDS011;12772;49.794;10.024;2023-12-22T07:06:35;2.88;;;1.30;;
24635;SDS011;12772;49.794;10.024;2023-12-22T07:10:37;2.58;;;1.13;;
24635;SDS011;12772;49.794;10.024;2023-12-22T07:14:39;1.60;;;1.05;;
24635;SDS011;12772;49.794;10.024;2023-12-22T07:18:41;2.50;;;1.33;;
24635;SDS011;12772;49.794;10.024;2023-12-22T07:22:46;2.53;;;1.40;;
24635;SDS011;12772;49.794;10.024;2023-12-22T07:26:48;3.78;;;1.40;;
24635;SDS011;12772;49.794;10.024;2023-12-22T07:30:50;4.22;;;1.65;;
24635;SDS011;12772;49.794;10.024;2023-12-22T07:34:54;2.60;;;1.48;;
24635;SDS011;12772;49.794;10.024;2023-12-22T07:38:56;2.15;;;1.60;;
24635;SDS011;12772;49.794;10.024;2023-12-22T07:42:59;4.18;;;1.90;;
24635;SDS011;12772;49.794;10.024;2023-12-22T07:47:01;3.80;;;1.65;;
24635;SDS011;12772;49.794;10.024;2023-12-22T07:51:03;4.32;;;1.33;;
24635;SDS011;12772;49.794;10.024;2023-12-22T07:55:06;4.93;;;1.60;;
24635;SDS011;12772;49.794;10.024;2023-12-22T07:59:10;2.58;;;1.52;;
24635;SDS011;12772;49.794;10.024;2023-12-22T08:03:12;1.67;;;1.23;;
24635;SDS011;12772;49.794;10.024;2023-12-22T08:07:14;1.77;;;1.17;;
24635;SDS011;12772;49.794;10.024;2023-12-22T08:11:16;2.03;;;1.42;;
24635;SDS011;12772;49.794;10.024;2023-12-22T08:15:20;2.67;;;1.17;;
24635;SDS011;12772;49.794;10.024;2023-12-22T08:19:22;3.55;;;2.20;;
24635;SDS011;12772;49.794;10.024;2023-12-22T08:23:23;3.50;;;1.60;;
24635;SDS011;12772;49.794;10.024;2023-12-22T08:27:25;3.72;;;1.63;;
24635;SDS011;12772;49.794;10.024;2023-12-22T08:31:27;4.70;;;1.60;;
24635;SDS011;12772;49.794;10.024;2023-12-22T08:35:29;4.53;;;1.63;;
24635;SDS011;12772;49.794;10.024;2023-12-22T08:39:32;4.97;;;1.95;;
24635;SDS011;12772;49.794;10.024;2023-12-22T08:43:33;8.45;;;2.65;;
24635;SDS011;12772;49.794;10.024;2023-12-22T08:47:36;5.53;;;1.85;;
24635;SDS011;12772;49.794;10.024;2023-12-22T08:51:38;5.35;;;1.83;;
24635;SDS011;12772;49.794;10.024;2023-12-22T08:55:39;7.25;;;1.90;;
24635;SDS011;12772;49.794;10.024;2023-12-22T08:59:41;3.67;;;2.53;;
24635;SDS011;12772;49.794;10.024;2023-12-22T09:03:43;6.00;;;2.28;;
24635;SDS011;12772;49.794;10.024;2023-12-22T09:07:47;5.35;;;1.75;;
24635;SDS011;12772;49.794;10.024;2023-12-22T09:11:48;6.95;;;1.95;;
24635;SDS011;12772;49.794;10.024;2023-12-22T09:15:50;4.80;;;1.90;;
24635;SDS011;12772;49.794;10.024;2023-12-22T09:19:53;4.13;;;1.70;;
24635;SDS011;12772;49.794;10.024;2023-12-22T09:23:56;6.78;;;2.25;;
24635;SDS011;12772;49.794;10.024;2023-12-22T09:27:58;5.55;;;2.10;;
24635;SDS011;12772;49.794;10.024;2023-12-22T09:32:01;7.30;;;2.17;;
24635;SDS011;12772;49.794;10.024;2023-12-22T09:36:03;9.02;;;2.75;;
24635;SDS011;12772;49.794;10.024;2023-12-22T09:40:06;4.85;;;2.08;;
24635;SDS011;12772;49.794;10.024;2023-12-22T09:44:10;7.53;;;2.35;;
24635;SDS011;12772;49.794;10.024;2023-12-22T09:48:12;5.18;;;1.88;;
24635;SDS011;12772;49.794;10.024;2023-12-22T09:52:17;5.50;;;2.25;;
24635;SDS011;12772;49.794;10.024;2023-12-22T09:56:20;6.53;;;2.63;;
24635;SDS011;12772;49.794;10.024;2023-12-22T10:00:23;4.40;;;1.80;;
24635;SDS011;12772;49.794;10.024;2023-12-22T10:04:28;4.40;;;1.60;;
24635;SDS011;12772;49.794;10.024;2023-12-22T10:08:30;3.20;;;1.60;;
24635;SDS011;12772;49.794;10.024;2023-12-22T10:12:34;4.50;;;1.85;;
24635;SDS011;12772;49.794;10.024;2023-12-22T10:16:37;4.03;;;1.33;;
24635;SDS011;12772;49.794;10.024;2023-12-22T10:20:39;3.53;;;1.42;;
24635;SDS011;12772;49.794;10.024;2023-12-22T10:24:42;4.25;;;1.40;;
24635;SDS011;12772;49.794;10.024;2023-12-22T10:28:47;2.88;;;1.13;;
24635;SDS011;12772;49.794;10.024;2023-12-22T10:32:50;1.75;;;1.45;;
24635;SDS011;12772;49.794;10.024;2023-12-22T10:36:53;4.03;;;1.38;;
24635;SDS011;12772;49.794;10.024;2023-12-22T10:40:55;3.67;;;1.30;;
24635;SDS011;12772;49.794;10.024;2023-12-22T10:44:57;1.80;;;1.25;;
24635;SDS011;12772;49.794;10.024;2023-12-22T10:48:59;2.35;;;1.30;;
24635;SDS011;12772;49.794;10.024;2023-12-22T10:53:01;1.45;;;1.35;;
24635;SDS011;12772;49.794;10.024;2023-12-22T10:57:07;2.38;;;1.40;;
24635;SDS011;12772;49.794;10.024;2023-12-22T11:01:11;2.47;;;1.35;;
24635;SDS011;12772;49.794;10.024;2023-12-22T11:05:15;2.85;;;1.20;;
24635;SDS011;12772;49.794;10.024;2023-12-22T11:09:21;2.53;;;1.42;;
24635;SDS011;12772;49.794;10.024;2023-12-22T11:13:26;2.28;;;1.50;;
24635;SDS011;12772;49.794;10.024;2023-12-22T11:17:28;2.88;;;1.63;;
24635;SDS011;12772;49.794;10.024;2023-12-22T11:21:32;5.20;;;1.80;;
24635;SDS011;12772;49.794;10.024;2023-12-22T11:25:34;6.40;;;1.92;;
24635;SDS011;12772;49.794;10.024;2023-12-22T11:29:36;3.47;;;2.03;;
24635;SDS011;12772;49.794;10.024;2023-12-22T11:33:43;4.72;;;1.98;;
24635;SDS011;12772;49.794;10.024;2023-12-22T11:37:47;6.10;;;2.35;;
24635;SDS011;12772;49.794;10.024;2023-12-22T11:41:51;6.85;;;2.33;;
24635;SDS011;12772;49.794;10.024;2023-12-22T11:45:55;7.55;;;2.97;;
24635;SDS011;12772;49.794;10.024;2023-12-22T11:49:58;6.70;;;2.30;;
24635;SDS011;12772;49.794;10.024;2023-12-22T11:54:00;9.65;;;2.90;;
24635;SDS011;12772;49.794;10.024;2023-12-22T12:02:43;9.90;;;2.88;;
24635;SDS011;12772;49.794;10.024;2023-12-22T12:06:56;9.43;;;3.15;;
24635;SDS011;12772;49.794;10.024;2023-12-22T12:10:58;9.20;;;3.00;;
24635;SDS011;12772;49.794;10.024;2023-12-22T12:15:07;12.27;;;2.92;;
24635;SDS011;12772;49.794;10.024;2023-12-22T12:19:10;8.25;;;3.10;;
24635;SDS011;12772;49.794;10.024;2023-12-22T12:23:12;7.65;;;2.50;;
24635;SDS011;12772;49.794;10.024;2023-12-22T12:27:18;8.82;;;2.83;;
24635;SDS011;12772;49.794;10.024;2023-12-22T12:31:21;12.80;;;3.53;;
24635;SDS011;12772;49.794;10.024;2023-12-22T12:35:38;7.78;;;2.65;;
24635;SDS011;12772;49.794;10.024;2023-12-22T12:39:41;7.03;;;3.10;;
24635;SDS011;12772;49.794;10.024;2023-12-22T12:43:45;6.70;;;2.45;;
24635;SDS011;12772;49.794;10.024;2023-12-22T12:47:59;6.03;;;2.60;;
24635;SDS011;12772;49.794;10.024;2023-12-22T12:52:02;10.30;;;3.17;;
24635;SDS011;12772;49.794;10.024;2023-12-22T12:56:04;6.28;;;2.30;;
24635;SDS011;12772;49.794;10.024;2023-12-22T13:00:07;5.60;;;2.20;;
24635;SDS011;12772;49.794;10.024;2023-12-22T13:04:09;7.72;;;3.45;;
24635;SDS011;12772;49.794;10.024;2023-12-22T13:08:13;8.65;;;3.15;;
24635;SDS011;12772;49.794;10.024;2023-12-22T13:12:15;5.97;;;2.90;;
24635;SDS011;12772;49.794;10.024;2023-12-22T13:16:18;5.95;;;2.42;;
24635;SDS011;12772;49.794;10.024;2023-12-22T13:20:20;7.35;;;2.20;;
24635;SDS011;12772;49.794;10.024;2023-12-22T13:24:23;8.13;;;2.13;;
24635;SDS011;12772;49.794;10.024;2023-12-22T13:28:27;6.95;;;2.10;;
24635;SDS011;12772;49.794;10.024;2023-12-22T13:32:29;3.60;;;2.20;;
24635;SDS011;12772;49.794;10.024;2023-12-22T13:36:34;6.10;;;2.77;;
24635;SDS011;12772;49.794;10.024;2023-12-22T13:40:38;5.45;;;1.80;;
24635;SDS011;12772;49.794;10.024;2023-12-22T13:44:44;5.15;;;2.00;;
24635;SDS011;12772;49.794;10.024;2023-12-22T13:48:47;3.42;;;1.90;;
24635;SDS011;12772;49.794;10.024;2023-12-22T13:52:49;5.70;;;2.22;;
24635;SDS011;12772;49.794;10.024;2023-12-22T13:56:52;3.15;;;1.50;;
24635;SDS011;12772;49.794;10.024;2023-12-22T14:00:54;3.45;;;1.40;;
24635;SDS011;12772;49.794;10.024;2023-12-22T14:04:57;2.88;;;1.27;;
24635;SDS011;12772;49.794;10.024;2023-12-22T14:08:59;4.90;;;1.75;;
24635;SDS011;12772;49.794;10.024;2023-12-22T14:13:01;4.53;;;1.50;;
24635;SDS011;12772;49.794;10.024;2023-12-22T14:17:03;2.55;;;1.20;;
24635;SDS011;12772;49.794;10.024;2023-12-22T14:21:05;3.40;;;1.38;;
24635;SDS011;12772;49.794;10.024;2023-12-22T14:25:07;3.25;;;1.20;;
24635;SDS011;12772;49.794;10.024;2023-12-22T14:29:09;3.38;;;1.40;;
24635;SDS011;12772;49.794;10.024;2023-12-22T14:33:11;1.95;;;1.23;;
24635;SDS011;12772;49.794;10.024;2023-12-22T14:37:14;1.45;;;1.30;;
24635;SDS011;12772;49.794;10.024;2023-12-22T14:41:17;2.03;;;1.30;;
24635;SDS011;12772;49.794;10.024;2023-12-22T14:45:19;2.95;;;1.80;;
24635;SDS011;12772;49.794;10.024;2023-12-22T14:49:23;2.40;;;1.42;;
24635;SDS011;12772;49.794;10.024;2023-12-22T14:53:25;8.13;;;1.63;;
24635;SDS011;12772;49.794;10.024;2023-12-22T14:57:28;5.00;;;1.75;;
24635;SDS011;12772;49.794;10.024;2023-12-22T15:01:30;3.70;;;1.83;;
24635;SDS011;12772;49.794;10.024;2023-12-22T15:05:33;1.65;;;1.55;;
24635;SDS011;12772;49.794;10.024;2023-12-22T15:09:38;1.70;;;1.60;;
24635;SDS011;12772;49.794;10.024;2023-12-22T15:13:41;1.55;;;1.42;;
24635;SDS011;12772;49.794;10.024;2023-12-22T15:17:43;1.98;;;1.35;;
24635;SDS011;12772;49.794;10.024;2023-12-22T15:21:46;1.40;;;1.30;;
24635;SDS011;12772;49.794;10.024;2023-12-22T15:25:48;1.40;;;1.23;;
24635;SDS011;12772;49.794;10.024;2023-12-22T15:29:50;1.23;;;1.13;;
24635;SDS011;12772;49.794;10.024;2023-12-22T15:33:52;1.85;;;1.00;;
24635;SDS011;12772;49.794;10.024;2023-12-22T15:37:54;0.90;;;0.90;;
24635;SDS011;12772;49.794;10.024;2023-12-22T15:41:56;1.25;;;1.00;;
24635;SDS011;12772;49.794;10.024;2023-12-22T15:45:58;1.58;;;0.85;;
24635;SDS011;12772;49.794;10.024;2023-12-22T15:50:04;1.80;;;1.00;;
24635;SDS011;12772;49.794;10.024;2023-12-22T15:54:07;1.08;;;0.90;;
24635;SDS011;12772;49.794;10.024;2023-12-22T15:58:09;0.80;;;0.80;;
24635;SDS011;12772;49.794;10.024;2023-12-22T16:02:11;1.02;;;1.02;;
24635;SDS011;12772;49.794;10.024;2023-12-22T16:06:13;1.58;;;1.48;;
24635;SDS011;12772;49.794;10.024;2023-12-22T16:10:15;0.90;;;0.90;;
24635;SDS011;12772;49.794;10.024;2023-12-22T16:14:17;1.30;;;1.20;;
24635;SDS011;12772;49.794;10.024;2023-12-22T16:18:19;1.08;;;1.05;;
24635;SDS011;12772;49.794;10.024;2023-12-22T16:22:21;1.27;;;1.15;;
24635;SDS011;12772;49.794;10.024;2023-12-22T16:26:23;1.90;;;1.40;;
24635;SDS011;12772;49.794;10.024;2023-12-22T16:30:25;3.28;;;2.22;;
24635;SDS011;12772;49.794;10.024;2023-12-22T16:34:27;2.40;;;2.13;;
24635;SDS011;12772;49.794;10.024;2023-12-22T16:38:29;2.22;;;2.03;;
24635;SDS011;12772;49.794;10.024;2023-12-22T16:42:31;2.38;;;1.35;;
24635;SDS011;12772;49.794;10.024;2023-12-22T16:46:33;1.58;;;1.30;;
24635;SDS011;12772;49.794;10.024;2023-12-22T16:50:35;1.05;;;0.98;;
24635;SDS011;12772;49.794;10.024;2023-12-22T16:54:37;1.20;;;1.10;;
24635;SDS011;12772;49.794;10.024;2023-12-22T16:58:39;1.60;;;1.17;;
24635;SDS011;12772;49.794;10.024;2023-12-22T17:02:41;1.83;;;1.35;;
24635;SDS011;12772;49.794;10.024;2023-12-22T17:06:47;1.10;;;1.10;;
24635;SDS011;12772;49.794;10.024;2023-12-22T17:10:53;1.35;;;1.25;;
24635;SDS011;12772;49.794;10.024;2023-12-22T17:14:55;2.97;;;1.02;;
24635;SDS011;12772;49.794;10.024;2023-12-22T17:18:57;0.98;;;0.98;;
24635;SDS011;12772;49.794;10.024;2023-12-22T17:22:59;1.70;;;1.10;;
24635;SDS011;12772;49.794;10.024;2023-12-22T17:27:01;1.50;;;1.17;;
24635;SDS011;12772;49.794;10.024;2023-12-22T17:31:03;0.80;;;0.80;;
24635;SDS011;12772;49.794;10.024;2023-12-22T17:35:06;1.55;;;1.17;;
24635;SDS011;12772;49.794;10.024;2023-12-22T17:39:08;1.08;;;0.90;;
24635;SDS011;12772;49.794;10.024;2023-12-22T17:43:10;0.85;;;0.82;;
24635;SDS011;12772;49.794;10.024;2023-12-22T17:47:12;1.23;;;1.20;;
24635;SDS011;12772;49.794;10.024;2023-12-22T17:51:15;1.20;;;1.10;;
24635;SDS011;12772;49.794;10.024;2023-12-22T17:55:17;1.00;;;1.00;;
24635;SDS011;12772;49.794;10.024;2023-12-22T17:59:18;1.60;;;0.93;;
24635;SDS011;12772;49.794;10.024;2023-12-22T18:03:20;1.20;;;1.08;;
24635;SDS011;12772;49.794;10.024;2023-12-22T18:07:23;0.85;;;0.85;;
24635;SDS011;12772;49.794;10.024;2023-12-22T18:11:25;1.55;;;1.08;;
24635;SDS011;12772;49.794;10.024;2023-12-22T18:15:27;1.10;;;1.10;;
24635;SDS011;12772;49.794;10.024;2023-12-22T18:19:29;0.70;;;0.70;;
24635;SDS011;12772;49.794;10.024;2023-12-22T18:23:31;0.98;;;0.73;;
24635;SDS011;12772;49.794;10.024;2023-12-22T18:27:33;0.98;;;0.80;;
24635;SDS011;12772;49.794;10.024;2023-12-22T18:31:34;2.72;;;0.90;;
24635;SDS011;12772;49.794;10.024;2023-12-22T18:35:38;0.90;;;0.80;;
24635;SDS011;12772;49.794;10.024;2023-12-22T18:39:40;0.70;;;0.70;;
24635;SDS011;12772;49.794;10.024;2023-12-22T18:43:42;1.13;;;1.02;;
24635;SDS011;12772;49.794;10.024;2023-12-22T18:47:44;1.73;;;0.90;;
24635;SDS011;12772;49.794;10.024;2023-12-22T18:51:47;1.70;;;0.95;;
24635;SDS011;12772;49.794;10.024;2023-12-22T18:55:49;1.40;;;1.30;;
24635;SDS011;12772;49.794;10.024;2023-12-22T18:59:51;1.90;;;1.15;;
24635;SDS011;12772;49.794;10.024;2023-12-22T19:03:56;1.50;;;1.00;;
24635;SDS011;12772;49.794;10.024;2023-12-22T19:07:57;0.98;;;0.90;;
24635;SDS011;12772;49.794;10.024;2023-12-22T19:11:59;1.20;;;1.10;;
24635;SDS011;12772;49.794;10.024;2023-12-22T19:16:01;1.05;;;0.95;;
24635;SDS011;12772;49.794;10.024;2023-12-22T19:20:04;1.02;;;0.98;;
24635;SDS011;12772;49.794;10.024;2023-12-22T19:24:06;0.90;;;0.90;;
24635;SDS011;12772;49.794;10.024;2023-12-22T19:28:08;2.50;;;1.08;;
24635;SDS011;12772;49.794;10.024;2023-12-22T19:32:10;0.70;;;0.70;;
24635;SDS011;12772;49.794;10.024;2023-12-22T19:36:12;0.82;;;0.82;;
24635;SDS011;12772;49.794;10.024;2023-12-22T19:40:17;0.52;;;0.52;;
24635;SDS011;12772;49.794;10.024;2023-12-22T19:44:22;0.70;;;0.70;;
24635;SDS011;12772;49.794;10.024;2023-12-22T19:48:24;2.97;;;0.80;;
24635;SDS011;12772;49.794;10.024;2023-12-22T19:52:26;0.82;;;0.82;;
24635;SDS011;12772;49.794;10.024;2023-12-22T19:56:30;0.80;;;0.80;;
24635;SDS011;12772;49.794;10.024;2023-12-22T20:00:32;1.10;;;1.00;;
24635;SDS011;12772;49.794;10.024;2023-12-22T20:04:36;0.70;;;0.70;;
24635;SDS011;12772;49.794;10.024;2023-12-22T20:08:38;1.88;;;0.90;;
24635;SDS011;12772;49.794;10.024;2023-12-22T20:12:41;1.05;;;1.00;;
24635;SDS011;12772;49.794;10.024;2023-12-22T20:16:44;0.85;;;0.85;;
24635;SDS011;12772;49.794;10.024;2023-12-22T20:20:45;0.82;;;0.80;;
24635;SDS011;12772;49.794;10.024;2023-12-22T20:24:48;1.13;;;1.02;;
24635;SDS011;12772;49.794;10.024;2023-12-22T20:28:50;0.90;;;0.90;;
24635;SDS011;12772;49.794;10.024;2023-12-22T20:32:52;0.70;;;0.70;;
24635;SDS011;12772;49.794;10.024;2023-12-22T20:36:54;0.90;;;0.90;;
24635;SDS011;12772;49.794;10.024;2023-12-22T20:40:56;0.82;;;0.82;;
24635;SDS011;12772;49.794;10.024;2023-12-22T20:44:58;1.52;;;1.00;;
24635;SDS011;12772;49.794;10.024;2023-12-22T20:49:01;0.85;;;0.85;;
24635;SDS011;12772;49.794;10.024;2023-12-22T20:53:04;1.67;;;0.90;;
24635;SDS011;12772;49.794;10.024;2023-12-22T20:57:06;0.90;;;0.90;;
24635;SDS011;12772;49.794;10.024;2023-12-22T21:01:09;3.08;;;1.10;;
24635;SDS011;12772;49.794;10.024;2023-12-22T21:05:11;3.10;;;1.23;;
24635;SDS011;12772;49.794;10.024;2023-12-22T21:09:15;2.78;;;1.10;;
24635;SDS011;12772;49.794;10.024;2023-12-22T21:13:17;1.65;;;1.40;;
24635;SDS011;12772;49.794;10.024;2023-12-22T21:17:20;1.25;;;1.05;;
24635;SDS011;12772;49.794;10.024;2023-12-22T21:21:21;1.17;;;1.08;;
24635;SDS011;12772;49.794;10.024;2023-12-22T21:25:23;1.20;;;1.10;;
24635;SDS011;12772;49.794;10.024;2023-12-22T21:29:26;4.47;;;1.63;;
24635;SDS011;12772;49.794;10.024;2023-12-22T21:33:28;1.83;;;1.17;;
24635;SDS011;12772;49.794;10.024;2023-12-22T21:37:30;1.17;;;1.10;;
24635;SDS011;12772;49.794;10.024;2023-12-22T21:41:32;1.25;;;1.15;;
24635;SDS011;12772;49.794;10.024;2023-12-22T21:45:34;2.20;;;1.00;;
24635;SDS011;12772;49.794;10.024;2023-12-22T21:49:38;0.90;;;0.90;;
24635;SDS011;12772;49.794;10.024;2023-12-22T21:53:40;1.50;;;0.93;;
24635;SDS011;12772;49.794;10.024;2023-12-22T21:57:42;1.02;;;1.00;;
24635;SDS011;12772;49.794;10.024;2023-12-22T22:01:45;2.78;;;1.00;;
24635;SDS011;12772;49.794;10.024;2023-12-22T22:05:47;1.40;;;1.17;;
24635;SDS011;12772;49.794;10.024;2023-12-22T22:09:49;1.48;;;1.08;;
24635;SDS011;12772;49.794;10.024;2023-12-22T22:13:51;2.38;;;0.90;;
24635;SDS011;12772;49.794;10.024;2023-12-22T22:17:53;1.08;;;0.80;;
24635;SDS011;12772;49.794;10.024;2023-12-22T22:21:55;2.17;;;1.05;;
24635;SDS011;12772;49.794;10.024;2023-12-22T22:25:57;2.83;;;1.20;;
24635;SDS011;12772;49.794;10.024;2023-12-22T22:30:01;0.93;;;0.93;;
24635;SDS011;12772;49.794;10.024;2023-12-22T22:34:03;0.85;;;0.80;;
24635;SDS011;12772;49.794;10.024;2023-12-22T22:38:05;2.95;;;1.30;;
24635;SDS011;12772;49.794;10.024;2023-12-22T22:42:07;1.15;;;1.00;;
24635;SDS011;12772;49.794;10.024;2023-12-22T22:46:09;1.42;;;0.98;;
24635;SDS011;12772;49.794;10.024;2023-12-22T22:50:11;1.23;;;1.13;;
24635;SDS011;12772;49.794;10.024;2023-12-22T22:54:13;2.65;;;1.10;;
24635;SDS011;12772;49.794;10.024;2023-12-22T22:58:15;1.40;;;1.10;;
24635;SDS011;12772;49.794;10.024;2023-12-22T23:02:17;1.95;;;1.08;;
24635;SDS011;12772;49.794;10.024;2023-12-22T23:06:19;1.23;;;1.10;;
24635;SDS011;12772;49.794;10.024;2023-12-22T23:10:28;1.38;;;1.17;;
24635;SDS011;12772;49.794;10.024;2023-12-22T23:14:30;2.17;;;1.45;;
24635;SDS011;12772;49.794;10.024;2023-12-22T23:18:32;2.00;;;1.25;;
24635;SDS011;12772;49.794;10.024;2023-12-22T23:22:34;1.90;;;1.20;;
24635;SDS011;12772;49.794;10.024;2023-12-22T23:26:38;1.67;;;1.10;;
24635;SDS011;12772;49.794;10.024;2023-12-22T23:30:41;2.33;;;1.25;;
24635;SDS011;12772;49.794;10.024;2023-12-22T23:34:43;3.60;;;1.10;;
24635;SDS011;12772;49.794;10.024;2023-12-22T23:38:46;1.13;;;0.90;;
24635;SDS011;12772;49.794;10.024;2023-12-22T23:42:48;3.40;;;0.90;;
24635;SDS011;12772;49.794;10.024;2023-12-22T23:46:50;2.67;;;1.00;;
24635;SDS011;12772;49.794;10.024;2023-12-22T23:50:52;2.83;;;1.17;;
24635;SDS011;12772;49.794;10.024;2023-12-22T23:54:54;2.17;;;1.33;;
24635;SDS011;12772;49.794;10.024;2023-12-22T23:58:56;1.23;;;1.13;;
